This is the latest recevied weather packets stored in our database for station/object OK3MS-5. If no packets are shown the sender has not sent any weather packets the latest 1 day(s).
| Time | Temp. | Humidity | Pressure | Rain* | Wind** | Luminosity | Snow |
|---|---|---|---|---|---|---|---|
| 1778070306 | 21.11° C | 46% | 1002.9 hPa | 0 mm | - | 223 W/m² | - |
| 1778070005 | 21.67° C | 45% | 1002.9 hPa | 0 mm | - | 278 W/m² | - |
| 1778068503 | 21.11° C | 45% | 1003.5 hPa | 0 mm | - | 225 W/m² | - |
| 1778067307 | 21.11° C | 46% | 1003.6 hPa | 0 mm | - | 262 W/m² | - |
| 1778066104 | 21.67° C | 45% | 1003.7 hPa | 0 mm | - | 249 W/m² | - |
| 1778065505 | 21.67° C | 43% | 1003.8 hPa | 0 mm | - | 473 W/m² | - |
| 1778065204 | 21.67° C | 43% | 1003.8 hPa | 0 mm | - | 314 W/m² | - |
| 1778064902 | 21.11° C | 45% | 1003.9 hPa | 0 mm | - | 982 W/m² | - |
| 1778064305 | 21.67° C | 43% | 1004.1 hPa | 0 mm | - | 321 W/m² | - |
| 1778063405 | 20.56° C | 46% | 1004.2 hPa | 0 mm | - | 226 W/m² | - |
| 1778062805 | 21.11° C | 46% | 1004.1 hPa | 0 mm | - | 673 W/m² | - |
| 1778061905 | 21.11° C | 47% | 1004.4 hPa | 0 mm | - | 777 W/m² | - |
| 1778061304 | 20.56° C | 50% | 1004.7 hPa | 0 mm | - | 644 W/m² | - |
| 1778060705 | 20° C | 56% | 1004.8 hPa | 0 mm | - | 582 W/m² | - |
| 1778060402 | 20° C | 53% | 1004.9 hPa | 0 mm | - | 583 W/m² | - |
| 1778060103 | 20° C | 54% | 1004.9 hPa | 0 mm | - | 520 W/m² | - |
| 1778059205 | 19.44° C | 53% | 1005.3 hPa | 0 mm | - | 448 W/m² | - |
| 1778058905 | 18.89° C | 56% | 1005.3 hPa | 0 mm | - | 703 W/m² | - |
| 1778057708 | 18.33° C | 58% | 1005.4 hPa | 0 mm | - | 692 W/m² | - |
| 1778057406 | 18.33° C | 59% | 1005.5 hPa | 0 mm | - | 523 W/m² | - |
| 1778057104 | 18.33° C | 59% | 1005.4 hPa | 0 mm | - | 659 W/m² | - |
| 1778056202 | 18.33° C | 62% | 1005.7 hPa | 0 mm | - | 601 W/m² | - |
| 1778055609 | 17.78° C | 61% | 1005.7 hPa | 0 mm | - | 295 W/m² | - |
| 1778055007 | 17.78° C | 61% | 1005.7 hPa | 0 mm | - | 610 W/m² | - |
| 1778054104 | 17.22° C | 65% | 1005.7 hPa | 0 mm | - | 565 W/m² | - |
* Rain latest hour (hover to see other rain measurements)
** Current wind speed in m/s (hover to see current wind gust speed)